Time;durP1;ratioP1;P1;durP2;ratioP2;P2;SDS_P1;SDS_P2;PMS_P1;PMS_P2;Temp;Humidity;BMP_temperature;BMP_pressure;BME280_temperature;BME280_humidity;BME280_pressure;Samples;Min_cycle;Max_cycle;Signal;HPM_P1;HPM_P2
2021/08/18 00:01:42;;;;;;;;;2.00;2.00;;;;;;;;5067207;28;45399;-89
2021/08/18 00:04:07;;;;;;;;;7.75;3.25;;;;;;;;5052205;28;45366;-90
2021/08/18 00:06:32;;;;;;;;;7.33;3.00;;;;;;;;5067456;28;45478;-89
2021/08/18 00:08:58;;;;;;;;;4.00;2.00;;;;;;;;5047309;28;46886;-87
2021/08/18 00:11:23;;;;;;;;;2.25;2.25;;;;;;;;5050144;28;45564;-89
2021/08/18 00:13:48;;;;;;;;;2.67;2.67;;;;;;;;5066557;27;45585;-89
2021/08/18 00:16:14;;;;;;;;;5.33;3.33;;;;;;;;5070331;27;45775;-89
2021/08/18 00:18:39;;;;;;;;;2.75;2.00;;;;;;;;5066027;28;46349;-88
2021/08/18 00:21:04;;;;;;;;;5.00;2.00;;;;;;;;5085651;27;45471;-89
2021/08/18 00:23:30;;;;;;;;;6.25;3.50;;;;;;;;5073380;27;45528;-88
2021/08/18 00:25:55;;;;;;;;;4.50;4.00;;;;;;;;5069027;28;45461;-87
2021/08/18 00:28:20;;;;;;;;;6.67;3.00;;;;;;;;5073673;28;46267;-88
2021/08/18 00:30:46;;;;;;;;;3.75;3.25;;;;;;;;5068943;27;45544;-89
2021/08/18 00:33:11;;;;;;;;;2.67;2.67;;;;;;;;5072387;27;45355;-89
2021/08/18 00:35:36;;;;;;;;;5.67;3.00;;;;;;;;5053806;28;49088;-88
2021/08/18 00:38:02;;;;;;;;;4.67;3.00;;;;;;;;5068285;27;45906;-89
2021/08/18 00:40:27;;;;;;;;;3.50;3.00;;;;;;;;5073468;28;45585;-88
2021/08/18 00:42:52;;;;;;;;;5.00;3.75;;;;;;;;5073756;27;45561;-88
2021/08/18 00:45:18;;;;;;;;;4.67;2.33;;;;;;;;5081004;27;45314;-89
2021/08/18 00:47:53;;;;;;;;;4.00;2.50;;;;;;;;5068991;28;45781;-88
2021/08/18 00:50:20;;;;;;;;;3.00;1.75;;;;;;;;5068327;27;45798;-85
2021/08/18 00:52:46;;;;;;;;;3.50;2.75;;;;;;;;5069966;28;45575;-89
2021/08/18 00:55:14;;;;;;;;;3.25;2.00;;;;;;;;5054618;28;45605;-88
2021/08/18 00:57:39;;;;;;;;;3.75;3.50;;;;;;;;5073362;28;46076;-85
2021/08/18 01:00:06;;;;;;;;;4.00;3.00;;;;;;;;5071388;27;45467;-89
2021/08/18 01:02:33;;;;;;;;;4.00;2.50;;;;;;;;5070952;27;45628;-88
2021/08/18 01:04:58;;;;;;;;;3.00;3.00;;;;;;;;5068242;27;45373;-87
2021/08/18 01:07:24;;;;;;;;;5.33;2.67;;;;;;;;5072357;27;46267;-85
2021/08/18 01:09:49;;;;;;;;;4.67;3.00;;;;;;;;5071838;28;45558;-87
2021/08/18 01:12:14;;;;;;;;;3.00;3.00;;;;;;;;5072220;27;45474;-89
2021/08/18 01:14:39;;;;;;;;;4.50;3.00;;;;;;;;5070448;27;45424;-86
2021/08/18 01:17:05;;;;;;;;;2.67;2.00;;;;;;;;5070969;27;46079;-89
2021/08/18 01:19:30;;;;;;;;;3.00;2.67;;;;;;;;5071352;28;45455;-88
2021/08/18 01:21:55;;;;;;;;;5.00;4.67;;;;;;;;5069936;28;45613;-89
2021/08/18 01:24:21;;;;;;;;;3.00;2.00;;;;;;;;5072209;27;45435;-88
2021/08/18 01:26:47;;;;;;;;;5.00;3.00;;;;;;;;5053567;28;47361;-89
2021/08/18 01:29:12;;;;;;;;;4.00;3.00;;;;;;;;5051905;28;45511;-88
2021/08/18 01:31:37;;;;;;;;;4.67;4.00;;;;;;;;5070240;28;48126;-88
2021/08/18 01:34:04;;;;;;;;;4.00;1.67;;;;;;;;5069619;28;45399;-89
2021/08/18 01:36:29;;;;;;;;;3.00;2.00;;;;;;;;5053610;28;47380;-90
2021/08/18 01:39:05;;;;;;;;;2.00;2.00;;;;;;;;5055608;28;45485;-88
2021/08/18 01:41:31;;;;;;;;;3.00;2.50;;;;;;;;5066876;28;45420;-87
2021/08/18 01:43:56;;;;;;;;;4.00;3.00;;;;;;;;5067917;27;45324;-87
2021/08/18 01:46:22;;;;;;;;;3.25;3.25;;;;;;;;5072324;28;45510;-89
2021/08/18 01:48:47;;;;;;;;;3.00;3.00;;;;;;;;5055102;28;46309;-89
2021/08/18 01:51:12;;;;;;;;;1.75;1.25;;;;;;;;5053402;28;45307;-89
2021/08/18 01:53:41;;;;;;;;;2.00;2.00;;;;;;;;5049572;28;46138;-89
2021/08/18 01:56:08;;;;;;;;;2.50;2.00;;;;;;;;5069111;27;46201;-89
2021/08/18 01:58:34;;;;;;;;;3.50;2.50;;;;;;;;5055994;28;45879;-89
2021/08/18 02:01:00;;;;;;;;;2.00;2.00;;;;;;;;5055806;28;45521;-87
2021/08/18 02:03:25;;;;;;;;;3.00;3.00;;;;;;;;5069781;28;45345;-88
2021/08/18 02:05:50;;;;;;;;;3.33;2.00;;;;;;;;5068351;28;45255;-88
2021/08/18 02:08:15;;;;;;;;;2.67;2.67;;;;;;;;5068980;28;45411;-87
2021/08/18 02:10:41;;;;;;;;;2.00;2.00;;;;;;;;5054644;28;45340;-86
2021/08/18 02:13:06;;;;;;;;;3.00;3.00;;;;;;;;5069459;28;45328;-88
2021/08/18 02:15:32;;;;;;;;;3.00;3.00;;;;;;;;5068658;28;45552;-88
2021/08/18 02:17:58;;;;;;;;;4.00;2.00;;;;;;;;5068139;28;45747;-88
2021/08/18 02:20:26;;;;;;;;;4.75;3.25;;;;;;;;5066318;28;45391;-88
2021/08/18 02:22:51;;;;;;;;;3.00;3.00;;;;;;;;5067350;28;45461;-88
2021/08/18 02:25:17;;;;;;;;;3.00;3.00;;;;;;;;5071301;27;45404;-89
2021/08/18 02:27:42;;;;;;;;;3.75;2.25;;;;;;;;5066975;28;45466;-87
2021/08/18 02:30:08;;;;;;;;;2.00;2.00;;;;;;;;5070521;28;45339;-89
2021/08/18 02:32:34;;;;;;;;;1.50;1.00;;;;;;;;5069053;28;45484;-89
2021/08/18 02:34:59;;;;;;;;;2.00;2.00;;;;;;;;5066011;27;46304;-88
2021/08/18 02:37:24;;;;;;;;;4.33;3.00;;;;;;;;5053971;28;45739;-85
2021/08/18 02:39:50;;;;;;;;;2.75;2.75;;;;;;;;5071889;27;45460;-88
2021/08/18 02:42:15;;;;;;;;;3.00;1.75;;;;;;;;5052153;28;45593;-86
2021/08/18 02:44:42;;;;;;;;;3.00;3.00;;;;;;;;5049662;28;47242;-87
2021/08/18 02:47:07;;;;;;;;;4.00;3.00;;;;;;;;5051328;28;45484;-88
2021/08/18 02:49:32;;;;;;;;;5.50;3.00;;;;;;;;5069515;27;45502;-88
2021/08/18 02:52:00;;;;;;;;;5.00;3.67;;;;;;;;5070337;28;45299;-90
2021/08/18 02:54:26;;;;;;;;;3.00;3.00;;;;;;;;5068209;28;45589;-88
2021/08/18 02:56:51;;;;;;;;;2.25;2.25;;;;;;;;5045508;28;45491;-87
2021/08/18 02:59:17;;;;;;;;;3.50;2.25;;;;;;;;5077120;27;45578;-86
2021/08/18 03:01:42;;;;;;;;;3.67;3.00;;;;;;;;5074114;27;45542;-88
2021/08/18 03:04:07;;;;;;;;;3.00;3.00;;;;;;;;5055320;28;47068;-89
2021/08/18 03:06:32;;;;;;;;;2.00;2.00;;;;;;;;5049507;28;45734;-89
2021/08/18 03:08:58;;;;;;;;;5.00;3.00;;;;;;;;5069897;28;45546;-87
2021/08/18 03:11:23;;;;;;;;;2.00;2.00;;;;;;;;5070911;27;45430;-88
2021/08/18 03:13:48;;;;;;;;;7.00;4.00;;;;;;;;5070943;28;45291;-89
2021/08/18 03:16:13;;;;;;;;;2.00;2.00;;;;;;;;5056482;28;45451;-89
2021/08/18 03:18:38;;;;;;;;;4.33;3.00;;;;;;;;5066995;28;45332;-88
2021/08/18 03:21:04;;;;;;;;;5.00;3.33;;;;;;;;5067697;27;45529;-88
2021/08/18 03:23:29;;;;;;;;;4.00;4.00;;;;;;;;5070199;27;45478;-86
2021/08/18 03:25:54;;;;;;;;;3.33;3.33;;;;;;;;5066091;27;45422;-89
2021/08/18 03:28:19;;;;;;;;;5.33;4.00;;;;;;;;5066316;28;45314;-89
2021/08/18 03:30:45;;;;;;;;;7.00;4.00;;;;;;;;5066217;28;45356;-88
2021/08/18 03:33:10;;;;;;;;;3.67;2.33;;;;;;;;5051676;28;48085;-88
2021/08/18 03:35:35;;;;;;;;;3.00;3.00;;;;;;;;5065238;28;45451;-87
2021/08/18 03:38:00;;;;;;;;;3.00;3.00;;;;;;;;5065625;27;45430;-87
2021/08/18 03:40:26;;;;;;;;;5.00;2.75;;;;;;;;5056667;28;45724;-87
2021/08/18 03:42:51;;;;;;;;;4.00;4.00;;;;;;;;5067518;28;48256;-87
2021/08/18 03:45:16;;;;;;;;;6.75;3.50;;;;;;;;5069082;28;45363;-87
2021/08/18 03:47:41;;;;;;;;;4.00;3.00;;;;;;;;5065026;28;45481;-87
2021/08/18 03:50:07;;;;;;;;;4.00;4.00;;;;;;;;5050141;28;45458;-89
2021/08/18 03:52:32;;;;;;;;;6.00;2.25;;;;;;;;5068636;27;45712;-88
2021/08/18 03:54:58;;;;;;;;;3.25;3.25;;;;;;;;5066847;28;45507;-87
2021/08/18 03:57:23;;;;;;;;;3.25;3.00;;;;;;;;5066214;28;45252;-86
2021/08/18 03:59:49;;;;;;;;;3.00;2.00;;;;;;;;5049699;28;45466;-88
2021/08/18 04:02:14;;;;;;;;;4.00;4.00;;;;;;;;5047280;28;47624;-86
2021/08/18 04:04:39;;;;;;;;;4.00;4.00;;;;;;;;5067833;27;45285;-88
2021/08/18 04:07:04;;;;;;;;;8.67;4.00;;;;;;;;5067473;28;45314;-88
2021/08/18 04:09:30;;;;;;;;;5.75;4.50;;;;;;;;5051813;28;45303;-87
2021/08/18 04:11:55;;;;;;;;;2.67;2.67;;;;;;;;5066840;28;45451;-87
2021/08/18 04:14:20;;;;;;;;;6.67;3.67;;;;;;;;5064858;27;45392;-88
2021/08/18 04:16:45;;;;;;;;;7.33;3.33;;;;;;;;5067190;27;45426;-88
2021/08/18 04:19:10;;;;;;;;;4.00;3.00;;;;;;;;5067496;28;45537;-88
2021/08/18 04:21:36;;;;;;;;;3.00;3.00;;;;;;;;5067276;28;45310;-88
2021/08/18 04:24:01;;;;;;;;;4.00;4.00;;;;;;;;5072196;28;45313;-88
2021/08/18 04:26:26;;;;;;;;;4.00;3.33;;;;;;;;5052271;28;45385;-88
2021/08/18 04:28:51;;;;;;;;;3.50;3.00;;;;;;;;5050741;28;45448;-86
2021/08/18 04:31:17;;;;;;;;;3.67;3.67;;;;;;;;5066790;28;45761;-87
2021/08/18 04:33:42;;;;;;;;;4.33;4.33;;;;;;;;5069494;28;45557;-88
2021/08/18 04:36:07;;;;;;;;;4.00;4.00;;;;;;;;5069598;28;45487;-88
2021/08/18 04:38:32;;;;;;;;;5.00;3.33;;;;;;;;5064978;28;45405;-88
2021/08/18 04:40:57;;;;;;;;;5.00;5.00;;;;;;;;5061794;28;45537;-86
2021/08/18 04:43:23;;;;;;;;;6.00;3.00;;;;;;;;5053194;28;45407;-87
2021/08/18 04:45:48;;;;;;;;;6.67;3.67;;;;;;;;5071871;28;45510;-88
2021/08/18 04:48:13;;;;;;;;;5.33;4.00;;;;;;;;5045887;28;45634;-88
2021/08/18 04:50:38;;;;;;;;;4.00;3.00;;;;;;;;5064346;28;46584;-88
2021/08/18 04:53:07;;;;;;;;;7.00;4.00;;;;;;;;5049688;28;45463;-88
2021/08/18 04:55:33;;;;;;;;;5.00;4.00;;;;;;;;5052371;28;45337;-88
2021/08/18 04:57:58;;;;;;;;;5.00;4.25;;;;;;;;5047296;28;45552;-87
2021/08/18 05:00:23;;;;;;;;;3.67;3.00;;;;;;;;5045651;27;47427;-88
2021/08/18 05:02:48;;;;;;;;;3.00;3.00;;;;;;;;5069147;27;45583;-88
2021/08/18 05:05:13;;;;;;;;;3.33;3.00;;;;;;;;5066850;27;45544;-89
2021/08/18 05:07:39;;;;;;;;;6.67;4.00;;;;;;;;5067964;27;45355;-88
2021/08/18 05:10:04;;;;;;;;;4.00;3.33;;;;;;;;5072446;27;45630;-87
2021/08/18 05:12:30;;;;;;;;;4.50;4.00;;;;;;;;5073052;27;45580;-89
2021/08/18 05:14:56;;;;;;;;;4.50;2.25;;;;;;;;5069277;28;45537;-88
2021/08/18 05:17:21;;;;;;;;;4.75;4.25;;;;;;;;5072744;28;45441;-86
2021/08/18 05:19:46;;;;;;;;;3.67;3.67;;;;;;;;5053899;28;46077;-88
2021/08/18 05:22:11;;;;;;;;;6.00;4.00;;;;;;;;5069170;27;45422;-87
2021/08/18 05:24:37;;;;;;;;;8.33;4.00;;;;;;;;5067995;28;45418;-88
2021/08/18 05:27:02;;;;;;;;;5.00;4.00;;;;;;;;5060884;27;45458;-88
2021/08/18 05:29:27;;;;;;;;;6.25;3.75;;;;;;;;5065160;27;45414;-87
2021/08/18 05:31:52;;;;;;;;;5.00;3.00;;;;;;;;5067305;27;45450;-87
2021/08/18 05:34:18;;;;;;;;;6.00;4.33;;;;;;;;5069823;28;45387;-88
2021/08/18 05:36:43;;;;;;;;;6.00;4.67;;;;;;;;5072725;28;45513;-88
2021/08/18 05:39:08;;;;;;;;;4.00;3.33;;;;;;;;5071149;27;45566;-88
2021/08/18 05:41:33;;;;;;;;;4.33;4.33;;;;;;;;5055004;28;45860;-87
2021/08/18 05:43:59;;;;;;;;;4.75;3.50;;;;;;;;5070655;28;45859;-87
2021/08/18 05:46:24;;;;;;;;;6.00;5.00;;;;;;;;5067403;28;45462;-86
2021/08/18 05:48:49;;;;;;;;;5.00;5.00;;;;;;;;5055138;28;46092;-88
2021/08/18 05:51:14;;;;;;;;;3.00;3.00;;;;;;;;5070372;27;45518;-87
2021/08/18 05:53:39;;;;;;;;;6.67;4.00;;;;;;;;5055061;27;45643;-88
2021/08/18 05:56:05;;;;;;;;;3.67;3.00;;;;;;;;5067865;28;45579;-88
2021/08/18 05:58:30;;;;;;;;;3.33;3.00;;;;;;;;5075132;27;48025;-88
2021/08/18 06:00:56;;;;;;;;;6.00;3.00;;;;;;;;5054585;28;45373;-88
2021/08/18 06:03:21;;;;;;;;;4.00;2.50;;;;;;;;5051730;28;45455;-86
2021/08/18 06:05:46;;;;;;;;;5.00;4.00;;;;;;;;5053263;28;45360;-88
2021/08/18 06:08:11;;;;;;;;;2.67;2.67;;;;;;;;5052879;28;47097;-84
2021/08/18 06:10:36;;;;;;;;;4.67;3.33;;;;;;;;5069594;27;46570;-87
2021/08/18 06:13:02;;;;;;;;;5.00;5.00;;;;;;;;5069013;28;45503;-88
2021/08/18 06:15:28;;;;;;;;;6.00;4.00;;;;;;;;5071430;28;45420;-88
2021/08/18 06:17:53;;;;;;;;;7.00;4.00;;;;;;;;5050738;28;47069;-88
2021/08/18 06:20:18;;;;;;;;;4.67;3.00;;;;;;;;5066804;27;45512;-88
2021/08/18 06:22:44;;;;;;;;;4.00;4.00;;;;;;;;5068880;28;45371;-89
2021/08/18 06:25:10;;;;;;;;;6.75;4.00;;;;;;;;5051471;28;45594;-87
2021/08/18 06:27:35;;;;;;;;;4.00;4.00;;;;;;;;5050274;28;46490;-87
2021/08/18 06:30:00;;;;;;;;;8.00;5.00;;;;;;;;5066961;28;45366;-88
2021/08/18 06:32:26;;;;;;;;;4.75;3.75;;;;;;;;5060999;27;45287;-87
2021/08/18 06:34:53;;;;;;;;;4.00;4.00;;;;;;;;5063750;27;45800;-88
2021/08/18 06:37:19;;;;;;;;;4.00;4.00;;;;;;;;5058155;28;45565;-88
2021/08/18 06:39:44;;;;;;;;;5.00;4.75;;;;;;;;5066625;27;45442;-88
2021/08/18 06:42:09;;;;;;;;;4.75;4.00;;;;;;;;5069913;28;45387;-88
2021/08/18 06:44:34;;;;;;;;;8.00;5.00;;;;;;;;5081441;27;45437;-89
2021/08/18 06:46:59;;;;;;;;;4.67;4.67;;;;;;;;5070948;27;46210;-86
2021/08/18 06:49:25;;;;;;;;;4.33;4.33;;;;;;;;5062077;27;45526;-83
2021/08/18 06:51:50;;;;;;;;;5.50;5.00;;;;;;;;5064608;27;45490;-88
2021/08/18 06:54:15;;;;;;;;;5.00;4.00;;;;;;;;5074208;28;45519;-88
2021/08/18 06:56:40;;;;;;;;;6.00;6.00;;;;;;;;5067539;28;45614;-89
2021/08/18 06:59:06;;;;;;;;;9.25;5.00;;;;;;;;5053915;27;45521;-88
2021/08/18 07:01:31;;;;;;;;;4.67;4.00;;;;;;;;5076155;27;45299;-88
2021/08/18 07:03:56;;;;;;;;;5.67;4.67;;;;;;;;5057149;28;45837;-88
2021/08/18 07:06:21;;;;;;;;;4.00;4.00;;;;;;;;5069432;27;47274;-89
2021/08/18 07:08:46;;;;;;;;;4.00;4.00;;;;;;;;5075603;27;45552;-90
2021/08/18 07:11:12;;;;;;;;;3.00;3.00;;;;;;;;5053663;28;45437;-89
2021/08/18 07:13:38;;;;;;;;;7.00;5.00;;;;;;;;5073954;28;45538;-89
2021/08/18 07:16:04;;;;;;;;;5.00;4.25;;;;;;;;5057095;28;46329;-89
2021/08/18 07:18:30;;;;;;;;;4.00;4.00;;;;;;;;5071383;27;45393;-90
2021/08/18 07:20:55;;;;;;;;;5.75;5.25;;;;;;;;5073114;28;45440;-89
2021/08/18 07:23:20;;;;;;;;;3.33;3.33;;;;;;;;5067815;28;45772;-84
2021/08/18 07:25:45;;;;;;;;;3.00;3.00;;;;;;;;5071688;28;46121;-88
2021/08/18 07:28:10;;;;;;;;;6.00;5.00;;;;;;;;5072319;27;46616;-89
2021/08/18 07:30:36;;;;;;;;;4.00;4.00;;;;;;;;5067177;28;45589;-89
2021/08/18 07:33:01;;;;;;;;;3.67;3.67;;;;;;;;5068799;27;45945;-86
2021/08/18 07:35:26;;;;;;;;;4.00;4.00;;;;;;;;5066143;27;46491;-85
2021/08/18 07:37:51;;;;;;;;;3.67;2.33;;;;;;;;5070980;28;45543;-86
2021/08/18 07:40:17;;;;;;;;;3.00;3.00;;;;;;;;5055593;28;45446;-86
2021/08/18 07:42:42;;;;;;;;;4.00;4.00;;;;;;;;5066462;28;45635;-85
2021/08/18 07:45:08;;;;;;;;;4.33;3.33;;;;;;;;5042062;28;46999;-84
2021/08/18 07:47:33;;;;;;;;;5.75;4.00;;;;;;;;5038330;28;45799;-84
2021/08/18 07:49:58;;;;;;;;;5.33;3.33;;;;;;;;5059098;28;45320;-85
2021/08/18 07:52:23;;;;;;;;;6.33;4.33;;;;;;;;5051854;28;45536;-84
2021/08/18 07:54:49;;;;;;;;;4.25;4.00;;;;;;;;5069064;28;46100;-84
2021/08/18 07:57:14;;;;;;;;;7.00;5.00;;;;;;;;5070935;28;45561;-84
2021/08/18 07:59:39;;;;;;;;;4.50;4.00;;;;;;;;5048293;28;45570;-85
2021/08/18 08:02:05;;;;;;;;;5.00;5.00;;;;;;;;5062057;28;45555;-85
2021/08/18 08:04:30;;;;;;;;;2.00;1.75;;;;;;;;5066328;28;46047;-83
2021/08/18 08:06:55;;;;;;;;;8.00;5.00;;;;;;;;5067051;28;45388;-85
2021/08/18 08:09:20;;;;;;;;;6.25;4.50;;;;;;;;5070525;27;45383;-85
2021/08/18 08:11:46;;;;;;;;;7.33;5.00;;;;;;;;5052586;27;45901;-85
2021/08/18 08:14:11;;;;;;;;;4.00;4.00;;;;;;;;5060880;28;46053;-85
2021/08/18 08:16:36;;;;;;;;;5.00;3.67;;;;;;;;5058696;28;45383;-85
2021/08/18 08:19:02;;;;;;;;;7.00;5.00;;;;;;;;5061466;27;45405;-79
2021/08/18 08:21:27;;;;;;;;;5.25;5.25;;;;;;;;5060008;28;46831;-85
2021/08/18 08:23:53;;;;;;;;;8.67;5.67;;;;;;;;5048462;28;48247;-87
2021/08/18 08:26:18;;;;;;;;;4.00;4.00;;;;;;;;5069947;28;45726;-85
2021/08/18 08:28:43;;;;;;;;;3.00;3.00;;;;;;;;5066368;28;45459;-83
2021/08/18 08:31:08;;;;;;;;;4.00;4.00;;;;;;;;5067574;27;45502;-85
2021/08/18 08:33:34;;;;;;;;;4.00;3.00;;;;;;;;5051531;28;48311;-85
2021/08/18 08:36:00;;;;;;;;;7.00;3.00;;;;;;;;5049513;28;45395;-85
2021/08/18 08:38:25;;;;;;;;;4.00;4.00;;;;;;;;5063720;27;45395;-85
2021/08/18 08:40:50;;;;;;;;;7.00;5.33;;;;;;;;5059149;28;45423;-84
2021/08/18 08:43:16;;;;;;;;;7.33;3.67;;;;;;;;5055983;28;48040;-85
2021/08/18 08:45:42;;;;;;;;;5.00;3.00;;;;;;;;5073464;27;45619;-85
2021/08/18 08:48:07;;;;;;;;;3.00;3.00;;;;;;;;5081749;27;45791;-84
2021/08/18 08:50:33;;;;;;;;;5.25;4.25;;;;;;;;5072445;27;45880;-85
2021/08/18 08:52:58;;;;;;;;;3.75;2.75;;;;;;;;5043211;28;48228;-85
2021/08/18 08:55:23;;;;;;;;;3.67;3.00;;;;;;;;5055529;27;45456;-86
2021/08/18 08:57:50;;;;;;;;;5.67;3.67;;;;;;;;5074118;27;45389;-84
2021/08/18 09:00:16;;;;;;;;;6.25;5.50;;;;;;;;5071679;27;45567;-85
2021/08/18 09:02:41;;;;;;;;;6.25;4.00;;;;;;;;5066741;27;46140;-85
2021/08/18 09:05:06;;;;;;;;;5.00;4.33;;;;;;;;5051172;28;45929;-84
2021/08/18 09:07:31;;;;;;;;;8.25;5.75;;;;;;;;5081189;27;45487;-85
2021/08/18 09:10:01;;;;;;;;;4.00;4.00;;;;;;;;5074217;27;45419;-83
2021/08/18 09:12:28;;;;;;;;;6.00;4.50;;;;;;;;5072940;27;46308;-83
2021/08/18 09:14:53;;;;;;;;;3.25;3.25;;;;;;;;5050442;28;45533;-82
2021/08/18 09:17:36;;;;;;;;;4.75;3.75;;;;;;;;5073017;27;45420;-82
2021/08/18 09:20:04;;;;;;;;;5.00;3.25;;;;;;;;5078897;27;45474;-82
2021/08/18 09:22:29;;;;;;;;;5.25;3.50;;;;;;;;5067316;27;45728;-82
2021/08/18 09:25:09;;;;;;;;;4.00;4.00;;;;;;;;5071436;27;45448;-82
2021/08/18 09:27:34;;;;;;;;;3.75;3.75;;;;;;;;5073504;27;45401;-83
2021/08/18 09:29:59;;;;;;;;;2.00;2.00;;;;;;;;5072139;28;45420;-82
2021/08/18 09:32:31;;;;;;;;;5.00;3.00;;;;;;;;5070345;27;45635;-83
2021/08/18 09:35:02;;;;;;;;;3.00;3.00;;;;;;;;5050248;28;45819;-83
2021/08/18 09:37:28;;;;;;;;;4.00;3.50;;;;;;;;5070099;27;45565;-82
2021/08/18 09:39:54;;;;;;;;;2.00;2.00;;;;;;;;5065128;27;45652;-85
2021/08/18 09:42:29;;;;;;;;;2.00;2.00;;;;;;;;5070381;27;46163;-86
2021/08/18 09:45:13;;;;;;;;;2.00;2.00;;;;;;;;5053645;28;45769;-86
2021/08/18 09:47:57;;;;;;;;;2.00;2.00;;;;;;;;5079077;27;45499;-87
2021/08/18 09:50:24;;;;;;;;;2.50;2.00;;;;;;;;5062519;28;45537;-87
2021/08/18 09:52:50;;;;;;;;;2.00;2.00;;;;;;;;5056028;27;46330;-88
2021/08/18 09:55:20;;;;;;;;;2.00;2.00;;;;;;;;5054115;28;45465;-87
2021/08/18 09:57:45;;;;;;;;;1.75;1.75;;;;;;;;5047431;27;45417;-88
2021/08/18 10:00:11;;;;;;;;;3.00;3.00;;;;;;;;5088007;27;45651;-88
2021/08/18 10:02:36;;;;;;;;;4.75;1.75;;;;;;;;5066491;27;45395;-88
2021/08/18 10:05:02;;;;;;;;;3.25;3.25;;;;;;;;5064381;27;45766;-89
2021/08/18 10:07:28;;;;;;;;;4.75;3.00;;;;;;;;5070361;28;45447;-87
2021/08/18 10:09:53;;;;;;;;;2.00;2.00;;;;;;;;5064248;27;45636;-88
2021/08/18 10:12:19;;;;;;;;;2.25;2.25;;;;;;;;5074997;27;46145;-88
2021/08/18 10:14:44;;;;;;;;;2.75;2.50;;;;;;;;5071840;28;45454;-88
2021/08/18 10:17:09;;;;;;;;;3.00;3.00;;;;;;;;5070646;28;45549;-84
2021/08/18 10:19:35;;;;;;;;;3.00;3.00;;;;;;;;5072097;27;45763;-86
2021/08/18 10:22:01;;;;;;;;;3.75;3.75;;;;;;;;5054232;28;47624;-86
2021/08/18 10:24:30;;;;;;;;;3.00;3.00;;;;;;;;5039978;28;45427;-87
2021/08/18 10:26:56;;;;;;;;;4.25;4.00;;;;;;;;5072947;28;45424;-88
2021/08/18 10:29:32;;;;;;;;;4.00;3.25;;;;;;;;5050421;28;45933;-88
2021/08/18 10:31:58;;;;;;;;;4.50;4.50;;;;;;;;5054952;28;47617;-86
2021/08/18 10:34:26;;;;;;;;;6.00;4.25;;;;;;;;5070252;27;46021;-88
2021/08/18 10:36:53;;;;;;;;;4.75;4.75;;;;;;;;5066579;28;45403;-88
2021/08/18 10:39:18;;;;;;;;;5.75;5.75;;;;;;;;5069416;28;45459;-87
2021/08/18 10:42:02;;;;;;;;;8.00;6.00;;;;;;;;5078684;27;47734;-89
2021/08/18 10:44:42;;;;;;;;;5.00;5.00;;;;;;;;5065964;28;45849;-83
2021/08/18 10:47:15;;;;;;;;;6.75;6.50;;;;;;;;5069422;27;45611;-86
2021/08/18 10:49:40;;;;;;;;;7.25;5.75;;;;;;;;5068272;28;45530;-85
2021/08/18 10:52:06;;;;;;;;;6.50;5.75;;;;;;;;5071617;28;46152;-85
2021/08/18 10:54:31;;;;;;;;;7.25;7.00;;;;;;;;5063230;27;45809;-86
2021/08/18 10:56:58;;;;;;;;;9.25;7.00;;;;;;;;5066751;28;45411;-86
2021/08/18 10:59:35;;;;;;;;;7.75;5.25;;;;;;;;5062709;28;45498;-86
2021/08/18 11:02:01;;;;;;;;;8.50;6.50;;;;;;;;5065842;28;46554;-86
2021/08/18 11:04:41;;;;;;;;;10.75;7.25;;;;;;;;5061343;27;45638;-85
2021/08/18 11:07:06;;;;;;;;;8.50;8.25;;;;;;;;5066932;28;45550;-86
2021/08/18 11:09:50;;;;;;;;;10.67;9.00;;;;;;;;5070505;28;45583;-86
2021/08/18 11:12:34;;;;;;;;;9.75;8.00;;;;;;;;5048706;28;47355;-85
2021/08/18 11:14:59;;;;;;;;;10.75;8.00;;;;;;;;5067692;28;45477;-86
2021/08/18 11:17:25;;;;;;;;;11.00;8.33;;;;;;;;5043877;28;45443;-86
2021/08/18 11:19:53;;;;;;;;;9.75;9.00;;;;;;;;5062350;28;45427;-86
2021/08/18 11:22:18;;;;;;;;;9.75;7.50;;;;;;;;5041560;28;47748;-89
2021/08/18 11:24:44;;;;;;;;;9.00;8.50;;;;;;;;5052144;28;45727;-86
2021/08/18 11:27:10;;;;;;;;;8.75;6.75;;;;;;;;5062799;27;45574;-88
2021/08/18 11:29:35;;;;;;;;;9.75;8.50;;;;;;;;5061688;28;46218;-87
2021/08/18 11:32:01;;;;;;;;;9.00;7.25;;;;;;;;5069833;28;45516;-85
2021/08/18 11:34:27;;;;;;;;;10.00;7.00;;;;;;;;5051057;28;45785;-86
2021/08/18 11:37:07;;;;;;;;;7.75;6.25;;;;;;;;5069753;28;45646;-85
2021/08/18 11:39:34;;;;;;;;;9.25;7.00;;;;;;;;5070235;27;45395;-84
2021/08/18 11:42:08;;;;;;;;;11.75;9.00;;;;;;;;5072477;27;46062;-87
2021/08/18 11:44:33;;;;;;;;;8.75;7.25;;;;;;;;5068621;27;45466;-86
2021/08/18 11:47:06;;;;;;;;;9.67;8.00;;;;;;;;5069939;28;45719;-85
2021/08/18 11:49:31;;;;;;;;;7.25;7.00;;;;;;;;5068596;27;45475;-85
2021/08/18 11:51:57;;;;;;;;;7.25;6.50;;;;;;;;5072103;27;46294;-85
2021/08/18 11:54:23;;;;;;;;;9.75;7.25;;;;;;;;5075790;27;45900;-85
2021/08/18 11:56:57;;;;;;;;;8.00;8.00;;;;;;;;5060391;28;45598;-86
2021/08/18 11:59:22;;;;;;;;;10.25;7.00;;;;;;;;5065271;28;45529;-85
2021/08/18 12:01:50;;;;;;;;;7.67;7.67;;;;;;;;5064461;27;45568;-85
2021/08/18 12:04:15;;;;;;;;;7.50;6.00;;;;;;;;5054337;28;45544;-85
2021/08/18 12:06:40;;;;;;;;;11.00;7.00;;;;;;;;5059362;28;45513;-84
2021/08/18 12:09:26;;;;;;;;;12.33;8.00;;;;;;;;5062712;28;45415;-85
2021/08/18 12:12:04;;;;;;;;;6.00;5.00;;;;;;;;5044187;28;47813;-86
2021/08/18 12:14:36;;;;;;;;;7.50;6.25;;;;;;;;5047227;27;45936;-84
2021/08/18 12:17:01;;;;;;;;;5.75;5.75;;;;;;;;5049482;28;45856;-85
2021/08/18 12:19:27;;;;;;;;;8.33;6.67;;;;;;;;5064782;27;46432;-85
2021/08/18 12:22:01;;;;;;;;;8.25;6.25;;;;;;;;5081543;27;45455;-84
2021/08/18 12:24:27;;;;;;;;;8.50;6.25;;;;;;;;5034204;28;46047;-85
2021/08/18 12:26:57;;;;;;;;;7.00;6.00;;;;;;;;5063539;28;45383;-85
2021/08/18 12:29:22;;;;;;;;;9.50;7.75;;;;;;;;5048109;28;45564;-83
2021/08/18 12:31:56;;;;;;;;;7.33;7.00;;;;;;;;5053371;28;48471;-85
2021/08/18 12:34:40;;;;;;;;;7.75;7.50;;;;;;;;5069275;28;45280;-84
2021/08/18 12:37:17;;;;;;;;;8.25;6.00;;;;;;;;5070183;28;45460;-86
2021/08/18 12:39:51;;;;;;;;;7.00;6.00;;;;;;;;5070385;27;45490;-85
2021/08/18 12:42:43;;;;;;;;;7.25;7.25;;;;;;;;5053937;28;46414;-83
2021/08/18 12:45:13;;;;;;;;;7.00;4.25;;;;;;;;5040985;28;46619;-86
2021/08/18 12:47:39;;;;;;;;;6.25;6.00;;;;;;;;5068775;28;45429;-83
2021/08/18 12:50:06;;;;;;;;;8.00;7.00;;;;;;;;5067522;28;45495;-83
2021/08/18 12:52:31;;;;;;;;;10.25;6.50;;;;;;;;5070575;27;45445;-83
2021/08/18 12:54:59;;;;;;;;;11.00;8.00;;;;;;;;5068655;28;45494;-84
2021/08/18 12:57:24;;;;;;;;;6.00;5.25;;;;;;;;5051524;28;45387;-83
2021/08/18 12:59:49;;;;;;;;;5.33;5.00;;;;;;;;5051716;28;45494;-83
2021/08/18 13:02:15;;;;;;;;;4.67;4.33;;;;;;;;5064019;28;46349;-83
2021/08/18 13:04:40;;;;;;;;;5.00;5.00;;;;;;;;5060828;28;45387;-84
2021/08/18 13:07:05;;;;;;;;;5.00;4.00;;;;;;;;5049805;28;45746;-83
2021/08/18 13:09:32;;;;;;;;;6.00;5.25;;;;;;;;5069637;27;45344;-83
2021/08/18 13:12:00;;;;;;;;;5.75;5.00;;;;;;;;5056293;27;47011;-82
2021/08/18 13:14:26;;;;;;;;;6.00;4.50;;;;;;;;5066646;28;45422;-83
2021/08/18 13:16:51;;;;;;;;;8.25;5.00;;;;;;;;5052104;28;45474;-83
2021/08/18 13:19:17;;;;;;;;;4.00;4.00;;;;;;;;5069793;28;45444;-86
2021/08/18 13:21:42;;;;;;;;;5.25;5.25;;;;;;;;5049984;28;46215;-84
2021/08/18 13:24:07;;;;;;;;;6.00;5.25;;;;;;;;5061922;28;45478;-87
2021/08/18 13:26:33;;;;;;;;;7.00;6.25;;;;;;;;5066138;27;45673;-89
2021/08/18 13:28:59;;;;;;;;;7.25;5.00;;;;;;;;5049566;28;45606;-87
2021/08/18 13:31:24;;;;;;;;;5.25;5.25;;;;;;;;5059405;28;45716;-85
2021/08/18 13:33:49;;;;;;;;;7.33;6.67;;;;;;;;5064765;27;45549;-85
2021/08/18 13:36:14;;;;;;;;;6.00;6.00;;;;;;;;5033450;28;45829;-85
2021/08/18 13:38:40;;;;;;;;;7.00;6.00;;;;;;;;5064894;27;45458;-85
2021/08/18 13:41:05;;;;;;;;;9.00;6.00;;;;;;;;5069793;27;45916;-85
2021/08/18 13:43:31;;;;;;;;;4.75;4.75;;;;;;;;5072715;27;45557;-84
2021/08/18 13:45:56;;;;;;;;;6.33;6.33;;;;;;;;5057781;27;45398;-83
2021/08/18 13:48:21;;;;;;;;;6.50;6.50;;;;;;;;5065676;27;45483;-84
2021/08/18 13:50:47;;;;;;;;;7.00;5.75;;;;;;;;5072866;27;46100;-84
2021/08/18 13:53:12;;;;;;;;;9.67;5.00;;;;;;;;5064212;27;45419;-84
2021/08/18 13:55:39;;;;;;;;;6.67;5.33;;;;;;;;5072315;27;45466;-83
2021/08/18 13:58:04;;;;;;;;;6.25;5.75;;;;;;;;5073171;27;45477;-84
2021/08/18 14:00:30;;;;;;;;;7.33;5.67;;;;;;;;5071605;28;46414;-84
2021/08/18 14:02:56;;;;;;;;;8.75;6.25;;;;;;;;5067575;27;45431;-84
2021/08/18 14:05:22;;;;;;;;;5.75;4.25;;;;;;;;5051832;28;45512;-84
2021/08/18 14:07:47;;;;;;;;;6.50;5.00;;;;;;;;5059501;27;45257;-84
2021/08/18 14:10:13;;;;;;;;;5.00;3.25;;;;;;;;5052859;28;47647;-84
2021/08/18 14:12:38;;;;;;;;;6.67;6.00;;;;;;;;5062804;28;45351;-84
2021/08/18 14:15:03;;;;;;;;;7.33;6.33;;;;;;;;5071210;27;45366;-85
2021/08/18 14:17:29;;;;;;;;;5.50;5.50;;;;;;;;5064285;27;45403;-85
2021/08/18 14:19:55;;;;;;;;;6.33;5.67;;;;;;;;5068431;28;45411;-85
2021/08/18 14:22:20;;;;;;;;;9.50;6.75;;;;;;;;5071264;28;45529;-84
2021/08/18 14:24:46;;;;;;;;;6.33;4.67;;;;;;;;5066480;27;45323;-86
2021/08/18 14:27:11;;;;;;;;;7.00;5.67;;;;;;;;5075283;27;45481;-86
2021/08/18 14:29:36;;;;;;;;;4.67;4.67;;;;;;;;5065366;27;45392;-83
2021/08/18 14:32:02;;;;;;;;;5.00;5.00;;;;;;;;5066847;28;45395;-83
2021/08/18 14:34:28;;;;;;;;;4.75;3.25;;;;;;;;5059217;28;45821;-84
2021/08/18 14:36:53;;;;;;;;;5.50;4.75;;;;;;;;5061961;27;45496;-84
2021/08/18 14:39:19;;;;;;;;;5.00;5.00;;;;;;;;5043711;28;47172;-85